Time;durP1;ratioP1;P1;durP2;ratioP2;P2;SDS_P1;SDS_P2;PMS_P1;PMS_P2;Temp;Humidity;BMP_temperature;BMP_pressure;BME280_temperature;BME280_humidity;BME280_pressure;Samples;Min_cycle;Max_cycle;Signal;HPM_P1;HPM_P2
2023/05/02 00:00:36;;;;;;;;;;;;;;;32.58;56.78;100886.47;5120753;27;69988;-39
2023/05/02 00:03:08;;;;;;;;;;;;;;;32.55;56.59;100889.66;5121868;27;66967;-38
2023/05/02 00:05:47;;;;;;;;;;;;;;;32.57;56.76;100895.66;5123616;27;70031;-39
2023/05/02 00:08:38;;;;;;;;;;;;;;;32.55;56.75;100904.06;5122886;27;66747;-39
2023/05/02 00:11:11;;;;;;;;;;;;;;;32.57;56.64;100906.53;5123841;27;69648;-39
2023/05/02 00:13:44;;;;;;;;;;;;;;;32.57;56.90;100906.53;5104724;27;66474;-39
2023/05/02 00:16:18;;;;;;;;;;;;;;;32.58;56.86;100908.19;5116517;27;69512;-38
2023/05/02 00:18:48;;;;;;;;;;;;;;;32.57;57.17;100904.66;5123821;27;66358;-40
2023/05/02 00:21:18;;;;;;;;;;;;;;;32.58;57.08;100910.91;5125295;27;70267;-39
2023/05/02 00:23:50;;;;;;;;;;;;;;;32.59;57.18;100915.28;5122893;27;66759;-39
2023/05/02 00:26:20;;;;;;;;;;;;;;;32.58;57.34;100913.63;5131130;27;70396;-38
2023/05/02 00:28:50;;;;;;;;;;;;;;;32.56;57.23;100918.47;5123311;27;67172;-39
2023/05/02 00:31:20;;;;;;;;;;;;;;;32.59;57.22;100915.28;5128553;27;69524;-39
2023/05/02 00:33:50;;;;;;;;;;;;;;;32.59;57.26;100918.00;5127169;27;65883;-39
2023/05/02 00:36:21;;;;;;;;;;;;;;;32.60;57.14;100927.81;5130848;27;69643;-39
2023/05/02 00:38:51;;;;;;;;;;;;;;;32.61;57.28;100934.91;5115962;27;66530;-40
2023/05/02 00:41:21;;;;;;;;;;;;;;;32.61;57.00;100940.31;5134175;27;69572;-38
2023/05/02 00:43:51;;;;;;;;;;;;;;;32.61;57.24;100945.75;5109661;27;65763;-39
2023/05/02 00:46:22;;;;;;;;;;;;;;;32.61;57.18;100940.31;5132710;27;69648;-39
2023/05/02 00:48:53;;;;;;;;;;;;;;;32.62;57.13;100948.22;5122740;27;66796;-40
2023/05/02 00:51:23;;;;;;;;;;;;;;;32.63;57.29;100940.94;5129853;27;70764;-39
2023/05/02 00:53:54;;;;;;;;;;;;;;;32.63;57.22;100947.19;5121951;27;67249;-39
2023/05/02 00:56:25;;;;;;;;;;;;;;;32.65;56.99;100955.94;5117161;27;70522;-38
2023/05/02 00:58:56;;;;;;;;;;;;;;;32.67;57.27;100955.69;5130546;27;66214;-39
2023/05/02 01:01:26;;;;;;;;;;;;;;;32.68;57.09;100951.91;5126016;27;70540;-39
2023/05/02 01:04:01;;;;;;;;;;;;;;;32.68;57.03;100958.19;5123334;27;66030;-39
2023/05/02 01:06:50;;;;;;;;;;;;;;;32.69;57.21;100964.44;5092574;27;62270;-39
2023/05/02 01:09:30;;;;;;;;;;;;;;;32.70;57.09;100961.47;5106794;27;66259;-39
2023/05/02 01:12:03;;;;;;;;;;;;;;;32.71;56.98;100971.31;5122417;27;70061;-39
2023/05/02 01:14:41;;;;;;;;;;;;;;;32.73;57.15;100971.06;5125256;27;66626;-39
2023/05/02 01:17:13;;;;;;;;;;;;;;;32.75;57.04;100973.56;5127535;27;70698;-40
2023/05/02 01:19:50;;;;;;;;;;;;;;;32.76;56.93;100976.03;5112917;27;65979;-40
2023/05/02 01:22:22;;;;;;;;;;;;;;;32.78;56.91;100973.91;5122265;27;71354;-38
2023/05/02 01:24:58;;;;;;;;;;;;;;;32.81;56.89;100991.66;5121914;27;66369;-40
2023/05/02 01:27:46;;;;;;;;;;;;;;;32.83;57.07;100979.50;5120420;27;70005;-40
2023/05/02 01:30:19;;;;;;;;;;;;;;;32.83;56.86;100976.78;5117191;27;66353;-40
2023/05/02 01:33:01;;;;;;;;;;;;;;;32.86;56.81;100976.31;5122821;27;69727;-39
2023/05/02 01:35:45;;;;;;;;;;;;;;;32.89;56.79;100981.28;5122842;27;65777;-40
2023/05/02 01:38:21;;;;;;;;;;;;;;;32.91;56.75;100978.34;5102282;27;69756;-39
2023/05/02 01:40:52;;;;;;;;;;;;;;;32.92;56.64;100975.38;5086215;27;66053;-41
2023/05/02 01:43:23;;;;;;;;;;;;;;;32.93;56.62;100977.06;5122065;27;70457;-39
2023/05/02 01:45:56;;;;;;;;;;;;;;;32.98;56.43;100978.22;5121882;27;66597;-38
2023/05/02 01:48:27;;;;;;;;;;;;;;;32.98;56.30;100980.94;5087733;27;69849;-40
2023/05/02 01:51:02;;;;;;;;;;;;;;;32.99;56.31;100982.59;5122892;27;66101;-39
2023/05/02 01:53:37;;;;;;;;;;;;;;;33.01;56.25;100986.75;5100213;27;70122;-40
2023/05/02 01:56:24;;;;;;;;;;;;;;;33.04;56.29;100986.34;5101677;27;66075;-39
2023/05/02 01:58:55;;;;;;;;;;;;;;;33.06;56.20;100986.06;5102021;27;69822;-39
2023/05/02 02:01:29;;;;;;;;;;;;;;;33.07;55.95;100982.28;5118894;27;65536;-38
2023/05/02 02:04:03;;;;;;;;;;;;;;;33.08;55.82;100984.78;5123034;27;70055;-41
2023/05/02 02:06:36;;;;;;;;;;;;;;;33.10;55.99;100982.69;5120545;27;66250;-40
2023/05/02 02:09:10;;;;;;;;;;;;;;;33.12;55.79;100979.69;5084113;27;69040;-40
2023/05/02 02:11:46;;;;;;;;;;;;;;;33.14;55.66;100985.75;5113400;27;66662;-39
2023/05/02 02:14:32;;;;;;;;;;;;;;;33.17;55.53;100988.00;5121409;27;69283;-41
2023/05/02 02:17:09;;;;;;;;;;;;;;;33.21;55.43;100993.78;5117908;27;66056;-40
2023/05/02 02:19:40;;;;;;;;;;;;;;;33.21;55.34;100994.63;5106251;27;69469;-41
2023/05/02 02:22:13;;;;;;;;;;;;;;;33.24;55.28;100983.28;5120228;27;66158;-40
2023/05/02 02:24:49;;;;;;;;;;;;;;;33.24;55.22;100980.56;5131496;27;70911;-39
2023/05/02 02:27:22;;;;;;;;;;;;;;;33.28;55.36;100979.03;5122400;27;66183;-41
2023/05/02 02:29:53;;;;;;;;;;;;;;;33.31;55.09;100984.00;5132444;27;70344;-39
2023/05/02 02:32:26;;;;;;;;;;;;;;;33.28;51.79;100978.19;5102988;27;65682;-44
2023/05/02 02:34:59;;;;;;;;;;;;;;;33.25;50.81;100984.94;5099932;27;69323;-41
2023/05/02 02:37:52;;;;;;;;;;;;;;;33.27;49.73;100982.81;5116243;27;66477;-41
2023/05/02 02:41:02;;;;;;;;;;;;;;;33.32;49.29;100982.09;5116223;27;70216;-39
2023/05/02 02:43:50;;;;;;;;;;;;;;;33.35;49.88;100974.31;5027128;28;66768;-39
2023/05/02 02:46:37;;;;;;;;;;;;;;;33.38;49.39;100979.28;5122597;27;69784;-39
2023/05/02 02:49:38;;;;;;;;;;;;;;;33.44;49.71;100990.28;5121611;27;66374;-42
2023/05/02 02:52:17;;;;;;;;;;;;;;;33.46;50.26;100980.84;5112820;27;70317;-40
2023/05/02 02:54:52;;;;;;;;;;;;;;;33.50;49.57;100981.19;5113126;27;66255;-41
2023/05/02 02:57:23;;;;;;;;;;;;;;;33.52;48.90;100988.06;5114354;27;69939;-40
2023/05/02 03:00:08;;;;;;;;;;;;;;;33.53;47.99;100986.19;5088955;27;65908;-39
2023/05/02 03:02:42;;;;;;;;;;;;;;;33.58;48.19;100989.03;5096885;27;70399;-40
2023/05/02 03:05:17;;;;;;;;;;;;;;;33.64;48.26;100995.41;5128141;27;66937;-40
2023/05/02 03:07:52;;;;;;;;;;;;;;;33.65;48.32;100987.00;5097016;27;69892;-40
2023/05/02 03:10:24;;;;;;;;;;;;;;;33.69;48.59;101001.78;5132724;27;66741;-40
2023/05/02 03:12:55;;;;;;;;;;;;;;;33.73;48.40;100991.25;5105045;27;69649;-41
2023/05/02 03:15:39;;;;;;;;;;;;;;;33.77;48.26;100987.84;5121728;27;66180;-39
2023/05/02 03:18:11;;;;;;;;;;;;;;;33.85;48.91;100983.06;5102238;27;68761;-40
2023/05/02 03:20:43;;;;;;;;;;;;;;;33.87;47.86;100979.06;5105185;27;65682;-40
2023/05/02 03:23:14;;;;;;;;;;;;;;;33.91;49.05;100976.72;5104417;27;70142;-39
2023/05/02 03:25:54;;;;;;;;;;;;;;;33.95;49.39;100966.97;5088753;27;66621;-39
2023/05/02 03:28:26;;;;;;;;;;;;;;;33.99;49.54;100965.41;5108388;27;70349;-39
2023/05/02 03:30:58;;;;;;;;;;;;;;;33.99;49.60;100957.25;5104701;27;67297;-42
2023/05/02 03:33:33;;;;;;;;;;;;;;;34.00;49.76;100950.78;5107443;27;70359;-40
2023/05/02 03:36:04;;;;;;;;;;;;;;;34.01;49.74;100949.69;5103614;27;66437;-41
2023/05/02 03:38:35;;;;;;;;;;;;;;;33.99;49.89;100940.94;5132350;27;69152;-43
2023/05/02 03:41:23;;;;;;;;;;;;;;;34.01;49.79;100936.09;5107800;27;65383;-40
2023/05/02 03:44:08;;;;;;;;;;;;;;;34.01;49.94;100927.91;5106971;27;69342;-41
2023/05/02 03:46:39;;;;;;;;;;;;;;;34.01;50.18;100920.56;5105529;27;66623;-40
2023/05/02 03:49:12;;;;;;;;;;;;;;;34.01;50.09;100922.47;5106149;27;69104;-40
2023/05/02 03:51:47;;;;;;;;;;;;;;;34.02;50.27;100914.09;5097196;27;66659;-40
2023/05/02 03:54:23;;;;;;;;;;;;;;;34.04;50.36;100911.09;5105077;27;69309;-40
2023/05/02 03:56:56;;;;;;;;;;;;;;;34.05;50.41;100912.81;5113294;27;65503;-41
2023/05/02 03:59:34;;;;;;;;;;;;;;;34.07;50.43;100899.75;5093380;27;70026;-40
2023/05/02 04:02:15;;;;;;;;;;;;;;;34.06;50.09;100889.94;5110526;27;66847;-40
2023/05/02 04:04:58;;;;;;;;;;;;;;;34.07;50.47;100894.31;5110931;27;70556;-43
2023/05/02 04:07:28;;;;;;;;;;;;;;;34.08;50.50;100892.44;5102555;27;66609;-45
2023/05/02 04:10:03;;;;;;;;;;;;;;;34.09;50.17;100897.63;5105039;27;70684;-41
2023/05/02 04:12:44;;;;;;;;;;;;;;;34.12;50.46;100888.16;5088750;27;66170;-41
2023/05/02 04:15:16;;;;;;;;;;;;;;;34.13;50.25;100882.47;5104706;27;69149;-42
2023/05/02 04:17:49;;;;;;;;;;;;;;;34.13;50.10;100868.88;5103938;27;66922;-41
2023/05/02 04:20:21;;;;;;;;;;;;;;;34.16;50.31;100875.72;5103986;27;70269;-40
2023/05/02 04:22:53;;;;;;;;;;;;;;;34.17;50.39;100870.03;5102918;27;66219;-42
2023/05/02 04:25:24;;;;;;;;;;;;;;;34.19;49.88;100869.78;5090281;27;68983;-40
2023/05/02 04:27:57;;;;;;;;;;;;;;;34.19;49.88;100859.72;5103954;27;66678;-41
2023/05/02 04:30:28;;;;;;;;;;;;;;;34.21;49.69;100860.31;5108261;27;69792;-39
2023/05/02 04:33:05;;;;;;;;;;;;;;;34.22;50.10;100855.69;5092261;27;66055;-40
2023/05/02 04:35:39;;;;;;;;;;;;;;;34.25;49.93;100847.84;5112934;27;70631;-39
2023/05/02 04:38:13;;;;;;;;;;;;;;;34.25;50.04;100847.84;5115515;27;67042;-40
2023/05/02 04:40:44;;;;;;;;;;;;;;;34.26;49.84;100838.59;5127675;27;69292;-40
2023/05/02 04:43:15;;;;;;;;;;;;;;;34.31;49.50;100834.34;5129519;27;66061;-41
2023/05/02 04:45:58;;;;;;;;;;;;;;;34.32;49.69;100828.63;5103279;27;70843;-40
2023/05/02 04:48:35;;;;;;;;;;;;;;;34.34;49.58;100828.41;5107624;27;65566;-41
2023/05/02 04:51:06;;;;;;;;;;;;;;;34.36;49.33;100820.81;5115986;27;70245;-40
2023/05/02 04:53:37;;;;;;;;;;;;;;;34.37;49.56;100814.28;5090688;27;66668;-40
2023/05/02 04:56:10;;;;;;;;;;;;;;;34.40;49.02;100816.50;5100843;27;69095;-42
2023/05/02 04:58:41;;;;;;;;;;;;;;;34.42;49.42;100820.66;5099232;27;66058;-43
2023/05/02 05:01:13;;;;;;;;;;;;;;;34.44;49.26;100804.06;5103302;27;70739;-40
2023/05/02 05:03:43;;;;;;;;;;;;;;;34.44;49.03;100796.72;5099544;27;66602;-40
2023/05/02 05:06:16;;;;;;;;;;;;;;;34.47;49.27;100795.41;5103777;27;70274;-41
2023/05/02 05:08:46;;;;;;;;;;;;;;;34.48;49.05;100792.41;5103051;27;66950;-39
2023/05/02 05:11:17;;;;;;;;;;;;;;;34.50;49.26;100784.00;5113414;27;70242;-40
2023/05/02 05:13:47;;;;;;;;;;;;;;;34.53;49.30;100783.50;5113704;27;67061;-40
2023/05/02 05:16:17;;;;;;;;;;;;;;;34.31;49.10;100739.84;5110619;27;69614;-40
2023/05/02 05:18:49;;;;;;;;;;;;;;;34.57;49.30;100773.78;5122914;27;66073;-40
2023/05/02 05:21:20;;;;;;;;;;;;;;;34.61;49.32;100761.34;5110791;27;69175;-42
2023/05/02 05:23:51;;;;;;;;;;;;;;;34.62;49.42;100760.25;5102835;27;65787;-45
2023/05/02 05:26:26;;;;;;;;;;;;;;;34.66;49.17;100755.16;5107444;27;69222;-40
2023/05/02 05:28:56;;;;;;;;;;;;;;;34.69;49.05;100744.56;5123581;27;65951;-43
2023/05/02 05:31:31;;;;;;;;;;;;;;;34.72;48.69;100737.00;5114543;27;70391;-42
2023/05/02 05:34:03;;;;;;;;;;;;;;;34.73;48.87;100735.91;5114915;27;66119;-41
2023/05/02 05:36:34;;;;;;;;;;;;;;;34.74;48.40;100724.75;5122733;27;69952;-40
2023/05/02 05:39:04;;;;;;;;;;;;;;;34.78;48.12;100722.34;5104486;27;66822;-40
2023/05/02 05:41:37;;;;;;;;;;;;;;;34.80;48.33;100715.59;5106330;27;70541;-40
2023/05/02 05:44:10;;;;;;;;;;;;;;;34.83;48.12;100706.09;5113706;27;66271;-40
2023/05/02 05:46:41;;;;;;;;;;;;;;;34.85;47.94;100699.31;5128435;27;70042;-39
2023/05/02 05:49:14;;;;;;;;;;;;;;;34.87;48.16;100685.41;5107131;27;66141;-40
2023/05/02 05:51:46;;;;;;;;;;;;;;;34.89;48.42;100683.28;5107128;27;70570;-39
2023/05/02 05:54:18;;;;;;;;;;;;;;;34.91;48.15;100675.69;5109352;27;66776;-40
2023/05/02 05:56:49;;;;;;;;;;;;;;;34.94;48.04;100658.81;5108353;27;70083;-41
2023/05/02 05:59:20;;;;;;;;;;;;;;;34.96;48.14;100656.63;5104838;27;66229;-40
2023/05/02 06:01:52;;;;;;;;;;;;;;;34.99;47.98;100656.13;5119469;27;70520;-41
2023/05/02 06:04:24;;;;;;;;;;;;;;;35.01;47.85;100643.06;5112000;27;66731;-40
2023/05/02 06:06:54;;;;;;;;;;;;;;;35.04;47.46;100634.38;5103169;27;70476;-42
2023/05/02 06:09:24;;;;;;;;;;;;;;;35.07;47.14;100619.44;5124012;27;66924;-41
2023/05/02 06:11:55;;;;;;;;;;;;;;;35.07;47.10;100609.38;5118789;27;70152;-40
2023/05/02 06:14:25;;;;;;;;;;;;;;;35.11;47.35;100613.25;5115334;27;67002;-40
2023/05/02 06:16:58;;;;;;;;;;;;;;;35.16;47.05;100606.19;5102916;27;69897;-40
2023/05/02 06:19:29;;;;;;;;;;;;;;;35.17;46.81;100607.84;5131603;27;65614;-39
2023/05/02 06:22:00;;;;;;;;;;;;;;;35.20;46.74;100607.34;5118503;27;70297;-43
2023/05/02 06:24:31;;;;;;;;;;;;;;;35.23;46.63;100598.63;5111364;27;66704;-40
2023/05/02 06:27:01;;;;;;;;;;;;;;;35.24;46.73;100597.56;5123918;27;70377;-42
2023/05/02 06:29:31;;;;;;;;;;;;;;;35.26;46.60;100588.03;5112815;27;66795;-41
2023/05/02 06:32:01;;;;;;;;;;;;;;;35.27;46.32;100586.13;5129087;27;70742;-40
2023/05/02 06:34:32;;;;;;;;;;;;;;;35.31;46.28;100582.63;5127117;27;65504;-40
2023/05/02 06:37:02;;;;;;;;;;;;;;;35.32;46.87;100586.19;5131612;27;69201;-39
2023/05/02 06:39:33;;;;;;;;;;;;;;;35.34;46.25;100582.13;5078805;27;65401;-41
2023/05/02 06:42:03;;;;;;;;;;;;;;;35.38;46.10;100576.16;5128075;27;70032;-40
2023/05/02 06:44:36;;;;;;;;;;;;;;;35.39;45.94;100573.16;5107109;27;66912;-41
2023/05/02 06:47:06;;;;;;;;;;;;;;;35.42;46.51;100572.66;5109698;27;69959;-42
2023/05/02 06:49:37;;;;;;;;;;;;;;;35.44;46.45;100565.03;5123763;27;66458;-42
2023/05/02 06:52:07;;;;;;;;;;;;;;;35.47;46.07;100569.97;5129023;27;70517;-40
2023/05/02 06:54:38;;;;;;;;;;;;;;;35.50;46.10;100560.44;5130823;27;66526;-42
2023/05/02 06:57:09;;;;;;;;;;;;;;;35.51;46.33;100552.00;5120131;27;69231;-40
2023/05/02 06:59:40;;;;;;;;;;;;;;;35.55;46.17;100553.13;5111283;27;66426;-41
2023/05/02 07:02:10;;;;;;;;;;;;;;;35.55;46.23;100555.84;5132117;27;69356;-41
2023/05/02 07:04:40;;;;;;;;;;;;;;;35.58;46.27;100558.09;5127658;27;66022;-41
2023/05/02 07:07:10;;;;;;;;;;;;;;;35.62;46.20;100549.38;5133084;27;70396;-41
2023/05/02 07:09:41;;;;;;;;;;;;;;;35.66;45.57;100555.94;5131061;27;66920;-40
2023/05/02 07:12:11;;;;;;;;;;;;;;;35.71;45.50;100550.53;5124565;27;70137;-42
2023/05/02 07:14:42;;;;;;;;;;;;;;;35.72;45.96;100546.75;5128216;27;66639;-41
2023/05/02 07:17:12;;;;;;;;;;;;;;;35.75;45.62;100538.84;5130042;27;70219;-41
2023/05/02 07:19:42;;;;;;;;;;;;;;;35.79;45.47;100544.59;5130159;27;67145;-40
2023/05/02 07:22:13;;;;;;;;;;;;;;;35.82;45.39;100541.34;5126838;27;71223;-41
2023/05/02 07:24:43;;;;;;;;;;;;;;;35.83;45.43;100529.38;5126028;27;65554;-43
2023/05/02 07:27:14;;;;;;;;;;;;;;;35.84;45.50;100536.44;5126518;27;70384;-40
2023/05/02 07:29:44;;;;;;;;;;;;;;;35.86;45.84;100528.00;5129583;27;65972;-41
2023/05/02 07:32:14;;;;;;;;;;;;;;;35.90;45.50;100531.84;5127474;27;69169;-41
2023/05/02 07:34:44;;;;;;;;;;;;;;;35.91;45.39;100525.28;5119522;27;66325;-41
2023/05/02 07:37:15;;;;;;;;;;;;;;;35.93;45.77;100523.94;5134693;27;69957;-40
2023/05/02 07:39:46;;;;;;;;;;;;;;;35.96;45.28;100530.78;5127233;27;66689;-42
2023/05/02 07:42:16;;;;;;;;;;;;;;;35.99;44.80;100525.63;5139277;27;69730;-41
2023/05/02 07:44:46;;;;;;;;;;;;;;;35.99;42.61;100522.88;5126139;27;66558;-42
2023/05/02 07:47:16;;;;;;;;;;;;;;;36.06;41.58;100514.50;5117642;27;70313;-39
2023/05/02 07:49:50;;;;;;;;;;;;;;;36.10;41.47;100517.53;5136322;27;65769;-41
2023/05/02 07:52:20;;;;;;;;;;;;;;;36.13;41.73;100517.00;5130940;27;70650;-40
2023/05/02 07:54:51;;;;;;;;;;;;;;;36.13;41.64;100506.06;5127830;27;64939;-40
2023/05/02 07:57:22;;;;;;;;;;;;;;;36.14;42.02;100507.72;5130766;27;70091;-40
2023/05/02 07:59:52;;;;;;;;;;;;;;;36.14;42.02;100502.28;5130039;27;66156;-40
2023/05/02 08:02:24;;;;;;;;;;;;;;;36.15;42.24;100501.19;5129386;27;70653;-40
2023/05/02 08:04:55;;;;;;;;;;;;;;;36.16;42.41;100487.28;5130488;27;66275;-40
2023/05/02 08:07:25;;;;;;;;;;;;;;;36.18;43.15;100489.72;5138198;27;70535;-43
2023/05/02 08:09:55;;;;;;;;;;;;;;;36.19;42.66;100489.47;5126662;27;67141;-40
2023/05/02 08:12:26;;;;;;;;;;;;;;;36.21;43.46;100491.91;5126823;27;69684;-41
2023/05/02 08:14:56;;;;;;;;;;;;;;;36.22;43.04;100488.94;5129507;27;66082;-40
2023/05/02 08:17:27;;;;;;;;;;;;;;;36.23;43.85;100487.03;5122734;27;70577;-42
2023/05/02 08:19:58;;;;;;;;;;;;;;;36.24;43.33;100475.81;5109449;27;66144;-40
2023/05/02 08:22:31;;;;;;;;;;;;;;;36.26;43.36;100472.00;5125360;27;69715;-40
2023/05/02 08:25:02;;;;;;;;;;;;;;;36.27;44.04;100463.53;5130777;27;66336;-40
2023/05/02 08:27:34;;;;;;;;;;;;;;;36.27;43.60;100460.81;5122948;27;69961;-41
2023/05/02 08:30:05;;;;;;;;;;;;;;;36.28;44.33;100459.75;5126188;27;65944;-40
2023/05/02 08:32:36;;;;;;;;;;;;;;;36.29;44.31;100460.56;5123806;27;70408;-40
2023/05/02 08:35:06;;;;;;;;;;;;;;;36.29;43.91;100475.03;5128542;27;66240;-47
2023/05/02 08:37:36;;;;;;;;;;;;;;;36.30;44.03;100465.72;5123686;27;69808;-40
2023/05/02 08:40:10;;;;;;;;;;;;;;;36.31;44.15;100463.84;5126510;27;66399;-41
2023/05/02 08:42:43;;;;;;;;;;;;;;;36.31;44.21;100464.66;5130500;27;70140;-40
2023/05/02 08:45:14;;;;;;;;;;;;;;;36.31;44.53;100481.03;5124348;27;67434;-41
2023/05/02 08:47:46;;;;;;;;;;;;;;;36.32;44.41;100482.69;5128691;27;70718;-40
2023/05/02 08:50:17;;;;;;;;;;;;;;;36.31;44.49;100481.03;5126562;27;67503;-40
2023/05/02 08:52:50;;;;;;;;;;;;;;;36.31;45.32;100491.16;5108965;27;69903;-40
2023/05/02 08:55:26;;;;;;;;;;;;;;;36.30;44.73;100481.28;5121595;27;67016;-40
2023/05/02 08:57:57;;;;;;;;;;;;;;;36.30;44.86;100484.03;5126796;27;70602;-40
2023/05/02 09:00:28;;;;;;;;;;;;;;;36.30;44.89;100484.84;5103081;27;65398;-39
2023/05/02 09:02:58;;;;;;;;;;;;;;;36.28;45.07;100481.59;5134407;27;70185;-40
2023/05/02 09:05:32;;;;;;;;;;;;;;;36.30;45.20;100484.84;5124250;27;65320;-40
2023/05/02 09:08:03;;;;;;;;;;;;;;;36.29;45.28;100477.75;5111352;27;68732;-42
2023/05/02 09:10:38;;;;;;;;;;;;;;;36.30;45.69;100479.38;5129747;27;66021;-41
2023/05/02 09:13:26;;;;;;;;;;;;;;;36.30;45.76;100492.22;5131349;27;69601;-41
2023/05/02 09:15:58;;;;;;;;;;;;;;;36.28;45.33;100473.38;5114434;27;66191;-40
2023/05/02 09:18:33;;;;;;;;;;;;;;;36.25;45.92;100476.66;5135603;27;70724;-40
2023/05/02 09:21:05;;;;;;;;;;;;;;;36.28;45.57;100476.13;5126233;27;66021;-40
2023/05/02 09:23:37;;;;;;;;;;;;;;;36.27;46.06;100473.63;5129860;27;70235;-41
2023/05/02 09:26:33;;;;;;;;;;;;;;;36.25;45.64;100476.66;5130763;27;66277;-41
2023/05/02 09:29:04;;;;;;;;;;;;;;;36.24;46.03;100475.00;5116601;27;70414;-40
2023/05/02 09:31:38;;;;;;;;;;;;;;;36.24;45.71;100470.34;5134564;27;66053;-41
2023/05/02 09:34:12;;;;;;;;;;;;;;;36.25;45.63;100471.19;5133991;27;69199;-40
2023/05/02 09:36:44;;;;;;;;;;;;;;;36.26;45.89;100461.91;5132566;27;66065;-40
2023/05/02 09:39:15;;;;;;;;;;;;;;;36.23;46.23;100448.78;5134844;27;69173;-40
2023/05/02 09:41:46;;;;;;;;;;;;;;;36.22;45.70;100456.16;5127023;27;66183;-42
2023/05/02 09:44:18;;;;;;;;;;;;;;;36.21;45.60;100459.16;5122052;27;69710;-40
2023/05/02 09:46:52;;;;;;;;;;;;;;;36.21;45.58;100448.22;5126824;27;66713;-39
2023/05/02 09:49:40;;;;;;;;;;;;;;;36.20;45.70;100446.59;5122498;27;69253;-40
2023/05/02 09:52:11;;;;;;;;;;;;;;;36.19;45.78;100450.38;5121932;27;66017;-41
2023/05/02 09:54:42;;;;;;;;;;;;;;;36.18;46.34;100448.75;5119194;27;70574;-42
2023/05/02 09:57:12;;;;;;;;;;;;;;;36.16;46.43;100445.47;5123634;27;65392;-41
2023/05/02 09:59:57;;;;;;;;;;;;;;;36.14;46.06;100450.41;5102198;27;70766;-41
2023/05/02 10:02:29;;;;;;;;;;;;;;;36.14;46.58;100447.66;5121812;27;65867;-41
2023/05/02 10:05:00;;;;;;;;;;;;;;;36.11;46.84;100453.63;5105282;27;69910;-41
2023/05/02 10:07:32;;;;;;;;;;;;;;;36.10;46.66;100455.53;5104260;27;65801;-41
2023/05/02 10:10:03;;;;;;;;;;;;;;;36.07;46.92;100463.47;5103243;27;70114;-40
2023/05/02 10:12:34;;;;;;;;;;;;;;;36.05;46.47;100460.13;5128161;27;66499;-41
2023/05/02 10:15:06;;;;;;;;;;;;;;;36.02;47.03;100464.22;5122507;27;71589;-39
2023/05/02 10:17:41;;;;;;;;;;;;;;;36.02;47.08;100478.72;5127953;27;66559;-40
2023/05/02 10:20:15;;;;;;;;;;;;;;;36.00;46.66;100493.72;5122496;27;70316;-40
2023/05/02 10:22:46;;;;;;;;;;;;;;;35.99;47.27;100501.06;5123881;27;66117;-42
2023/05/02 10:25:16;;;;;;;;;;;;;;;35.98;47.29;100509.53;5128170;27;70591;-41
2023/05/02 10:27:47;;;;;;;;;;;;;;;35.95;46.88;100505.41;5110759;27;66312;-41
2023/05/02 10:30:17;;;;;;;;;;;;;;;35.97;47.47;100518.81;5109151;27;70780;-40
2023/05/02 10:32:48;;;;;;;;;;;;;;;35.93;47.56;100523.94;5124240;27;66709;-41
2023/05/02 10:35:19;;;;;;;;;;;;;;;35.92;47.18;100527.78;5128856;27;70668;-42
2023/05/02 10:37:50;;;;;;;;;;;;;;;35.90;46.89;100529.94;5095931;27;66049;-41
2023/05/02 10:40:21;;;;;;;;;;;;;;;35.89;47.61;100541.94;5137659;27;70074;-40
2023/05/02 10:42:52;;;;;;;;;;;;;;;35.87;47.80;100546.84;5127620;27;66489;-39
2023/05/02 10:45:32;;;;;;;;;;;;;;;35.86;47.73;100558.00;5113200;27;69024;-43
2023/05/02 10:48:19;;;;;;;;;;;;;;;35.82;47.77;100546.81;5129582;27;65942;-41
2023/05/02 10:50:51;;;;;;;;;;;;;;;35.82;47.38;100560.44;5110899;27;70091;-41
2023/05/02 10:53:22;;;;;;;;;;;;;;;35.79;47.89;100558.25;5127765;27;66987;-41
2023/05/02 10:56:10;;;;;;;;;;;;;;;35.79;47.99;100555.53;5130238;27;69937;-40
2023/05/02 10:58:44;;;;;;;;;;;;;;;35.76;47.46;100561.50;5129738;27;66254;-41
2023/05/02 11:01:36;;;;;;;;;;;;;;;35.75;47.80;100562.59;5124062;27;70161;-40
2023/05/02 11:04:07;;;;;;;;;;;;;;;35.65;48.19;100565.22;5122179;27;66219;-39
2023/05/02 11:06:58;;;;;;;;;;;;;;;35.57;47.02;100569.25;5124662;27;70349;-40
2023/05/02 11:09:28;;;;;;;;;;;;;;;35.54;47.03;100580.66;5132520;27;66719;-41
2023/05/02 11:12:00;;;;;;;;;;;;;;;35.48;47.25;100577.06;5127415;27;70104;-42
2023/05/02 11:14:33;;;;;;;;;;;;;;;35.50;47.28;100583.09;5129293;27;66461;-41
2023/05/02 11:17:04;;;;;;;;;;;;;;;35.53;47.12;100592.66;5128481;27;69735;-44
2023/05/02 11:19:37;;;;;;;;;;;;;;;35.32;47.67;100584.28;5136693;27;65726;-41
2023/05/02 11:22:17;;;;;;;;;;;;;;;35.25;47.93;100591.03;5115691;27;69821;-42
2023/05/02 11:24:48;;;;;;;;;;;;;;;35.24;48.06;100586.63;5130995;27;65619;-42
2023/05/02 11:27:48;;;;;;;;;;;;;;;35.22;48.45;100578.75;5115371;27;69939;-41
2023/05/02 11:30:35;;;;;;;;;;;;;;;35.20;48.42;100585.53;5114669;27;66618;-40
2023/05/02 11:33:07;;;;;;;;;;;;;;;35.17;47.74;100602.41;5095794;27;70059;-43
2023/05/02 11:35:41;;;;;;;;;;;;;;;35.17;46.93;100596.94;5113085;27;66386;-41
2023/05/02 11:38:13;;;;;;;;;;;;;;;35.13;47.07;100600.19;5140350;27;70399;-41
2023/05/02 11:40:50;;;;;;;;;;;;;;;35.04;46.39;100588.03;5119876;27;66883;-41
2023/05/02 11:43:21;;;;;;;;;;;;;;;35.05;46.65;100589.72;5116420;27;68580;-41
2023/05/02 11:45:57;;;;;;;;;;;;;;;35.09;46.69;100596.31;5124140;27;67375;-44
2023/05/02 11:48:29;;;;;;;;;;;;;;;35.06;46.26;100601.47;5124221;27;70125;-41
2023/05/02 11:51:05;;;;;;;;;;;;;;;35.08;46.23;100605.59;5123710;27;67066;-42
2023/05/02 11:53:40;;;;;;;;;;;;;;;35.00;46.08;100608.72;5116718;27;70360;-42
2023/05/02 11:56:10;;;;;;;;;;;;;;;34.99;46.03;100601.59;5126768;27;65380;-41
2023/05/02 11:58:42;;;;;;;;;;;;;;;35.01;46.54;100604.91;5116843;27;69715;-40
2023/05/02 12:01:14;;;;;;;;;;;;;;;35.06;46.31;100620.53;5116884;27;66588;-41
2023/05/02 12:03:44;;;;;;;;;;;;;;;35.04;46.14;100618.03;5114163;27;69885;-40
2023/05/02 12:06:17;;;;;;;;;;;;;;;35.02;46.59;100612.03;5111507;27;65797;-42
2023/05/02 12:08:48;;;;;;;;;;;;;;;34.99;46.70;100617.97;5099097;27;69515;-42
2023/05/02 12:11:20;;;;;;;;;;;;;;;35.02;46.90;100622.94;5126167;27;67069;-40
2023/05/02 12:13:51;;;;;;;;;;;;;;;35.07;46.52;100620.28;5087119;27;68800;-40
2023/05/02 12:16:21;;;;;;;;;;;;;;;35.05;46.70;100630.59;5119781;27;66739;-43
2023/05/02 12:18:52;;;;;;;;;;;;;;;35.08;47.38;100632.03;5120899;27;69897;-40
2023/05/02 12:21:22;;;;;;;;;;;;;;;35.05;47.22;100644.22;5121632;27;66144;-42
2023/05/02 12:23:53;;;;;;;;;;;;;;;35.04;47.22;100655.38;5122606;27;70496;-40
2023/05/02 12:26:31;;;;;;;;;;;;;;;35.03;48.10;100662.72;5105862;27;65319;-41
2023/05/02 12:29:06;;;;;;;;;;;;;;;35.03;48.22;100662.72;5124640;27;69672;-40
2023/05/02 12:31:36;;;;;;;;;;;;;;;35.01;48.57;100670.31;5120140;27;65144;-40
2023/05/02 12:34:06;;;;;;;;;;;;;;;35.02;48.72;100677.44;5125415;27;69739;-41
2023/05/02 12:36:43;;;;;;;;;;;;;;;34.98;49.01;100676.28;5116529;27;66576;-43
2023/05/02 12:39:14;;;;;;;;;;;;;;;35.01;48.97;100669.50;5124714;27;70400;-42
2023/05/02 12:41:45;;;;;;;;;;;;;;;34.98;48.70;100670.03;5103118;27;66163;-44
2023/05/02 12:44:16;;;;;;;;;;;;;;;35.00;48.90;100676.06;5085962;27;70079;-43
2023/05/02 12:47:00;;;;;;;;;;;;;;;34.98;48.79;100687.19;5112321;27;65952;-40
2023/05/02 12:49:30;;;;;;;;;;;;;;;34.80;50.71;100682.03;5116009;27;70703;-41
2023/05/02 12:52:00;;;;;;;;;;;;;;;34.57;50.40;100694.81;5121457;27;65942;-41
2023/05/02 12:54:30;;;;;;;;;;;;;;;34.37;48.81;100691.75;5116527;27;69802;-41
2023/05/02 12:57:01;;;;;;;;;;;;;;;34.20;47.75;100695.31;5125076;27;65917;-42
2023/05/02 12:59:32;;;;;;;;;;;;;;;33.98;45.53;100699.78;5126506;27;69613;-40
2023/05/02 13:02:02;;;;;;;;;;;;;;;33.89;44.94;100701.28;5123903;27;66653;-42
2023/05/02 13:04:33;;;;;;;;;;;;;;;33.76;43.90;100708.66;5122789;27;70658;-41
2023/05/02 13:07:04;;;;;;;;;;;;;;;33.73;44.25;100711.88;5122231;27;66311;-41